sensor_id;sensor_type;location;lat;lon;timestamp;P1;durP1;ratioP1;P2;durP2;ratioP2
62268;SDS011;56517;51.634;5.566;2023-01-29T00:03:55;33.42;;;17.55;;
62268;SDS011;56517;51.634;5.566;2023-01-29T00:08:56;31.92;;;18.23;;
62268;SDS011;56517;51.634;5.566;2023-01-29T00:13:57;39.75;;;20.27;;
62268;SDS011;56517;51.634;5.566;2023-01-29T00:18:57;38.15;;;20.83;;
62268;SDS011;56517;51.634;5.566;2023-01-29T00:23:58;42.20;;;22.10;;
62268;SDS011;56517;51.634;5.566;2023-01-29T00:28:59;40.63;;;18.80;;
62268;SDS011;56517;51.634;5.566;2023-01-29T00:33:59;37.88;;;20.63;;
62268;SDS011;56517;51.634;5.566;2023-01-29T00:39:00;38.75;;;20.20;;
62268;SDS011;56517;51.634;5.566;2023-01-29T00:44:00;33.25;;;18.75;;
62268;SDS011;56517;51.634;5.566;2023-01-29T00:49:01;30.73;;;16.20;;
62268;SDS011;56517;51.634;5.566;2023-01-29T00:54:02;36.78;;;16.15;;
62268;SDS011;56517;51.634;5.566;2023-01-29T00:59:03;33.90;;;18.13;;
62268;SDS011;56517;51.634;5.566;2023-01-29T01:04:03;27.65;;;16.52;;
62268;SDS011;56517;51.634;5.566;2023-01-29T01:09:04;31.25;;;14.63;;
62268;SDS011;56517;51.634;5.566;2023-01-29T01:14:05;31.27;;;16.10;;
62268;SDS011;56517;51.634;5.566;2023-01-29T01:19:05;30.08;;;15.45;;
62268;SDS011;56517;51.634;5.566;2023-01-29T01:24:06;29.02;;;16.05;;
62268;SDS011;56517;51.634;5.566;2023-01-29T01:29:06;37.10;;;19.60;;
62268;SDS011;56517;51.634;5.566;2023-01-29T01:34:07;30.65;;;15.32;;
62268;SDS011;56517;51.634;5.566;2023-01-29T01:39:08;32.15;;;17.67;;
62268;SDS011;56517;51.634;5.566;2023-01-29T01:49:27;35.08;;;16.70;;
62268;SDS011;56517;51.634;5.566;2023-01-29T01:54:28;30.13;;;16.33;;
62268;SDS011;56517;51.634;5.566;2023-01-29T01:59:30;29.65;;;16.17;;
62268;SDS011;56517;51.634;5.566;2023-01-29T02:04:32;32.22;;;17.33;;
62268;SDS011;56517;51.634;5.566;2023-01-29T02:09:49;33.67;;;16.58;;
62268;SDS011;56517;51.634;5.566;2023-01-29T02:14:51;28.38;;;15.95;;
62268;SDS011;56517;51.634;5.566;2023-01-29T02:24:57;29.63;;;17.33;;
62268;SDS011;56517;51.634;5.566;2023-01-29T02:35:05;31.85;;;18.27;;
62268;SDS011;56517;51.634;5.566;2023-01-29T02:40:18;32.78;;;17.05;;
62268;SDS011;56517;51.634;5.566;2023-01-29T02:45:24;36.20;;;18.40;;
62268;SDS011;56517;51.634;5.566;2023-01-29T03:00:33;33.85;;;18.83;;
62268;SDS011;56517;51.634;5.566;2023-01-29T03:10:40;26.30;;;16.75;;
62268;SDS011;56517;51.634;5.566;2023-01-29T03:15:44;28.33;;;15.73;;
62268;SDS011;56517;51.634;5.566;2023-01-29T03:20:49;28.58;;;16.02;;
62268;SDS011;56517;51.634;5.566;2023-01-29T03:25:52;31.20;;;15.18;;
62268;SDS011;56517;51.634;5.566;2023-01-29T03:30:54;33.92;;;17.25;;
62268;SDS011;56517;51.634;5.566;2023-01-29T03:36:00;42.50;;;20.95;;
62268;SDS011;56517;51.634;5.566;2023-01-29T03:41:05;37.75;;;17.38;;
62268;SDS011;56517;51.634;5.566;2023-01-29T03:46:09;35.63;;;18.05;;
62268;SDS011;56517;51.634;5.566;2023-01-29T03:56:47;40.55;;;20.33;;
62268;SDS011;56517;51.634;5.566;2023-01-29T04:01:56;41.38;;;20.50;;
62268;SDS011;56517;51.634;5.566;2023-01-29T04:07:17;31.27;;;16.58;;
62268;SDS011;56517;51.634;5.566;2023-01-29T04:12:20;36.30;;;17.73;;
62268;SDS011;56517;51.634;5.566;2023-01-29T04:17:26;37.50;;;19.45;;
62268;SDS011;56517;51.634;5.566;2023-01-29T04:22:31;33.38;;;16.52;;
62268;SDS011;56517;51.634;5.566;2023-01-29T04:27:48;42.33;;;21.27;;
62268;SDS011;56517;51.634;5.566;2023-01-29T04:43:00;41.22;;;18.92;;
62268;SDS011;56517;51.634;5.566;2023-01-29T04:53:09;37.10;;;20.77;;
62268;SDS011;56517;51.634;5.566;2023-01-29T04:58:14;36.80;;;17.65;;
62268;SDS011;56517;51.634;5.566;2023-01-29T05:03:22;38.85;;;19.73;;
62268;SDS011;56517;51.634;5.566;2023-01-29T05:08:23;48.78;;;22.98;;
62268;SDS011;56517;51.634;5.566;2023-01-29T05:13:25;39.42;;;19.73;;
62268;SDS011;56517;51.634;5.566;2023-01-29T05:18:27;48.35;;;22.10;;
62268;SDS011;56517;51.634;5.566;2023-01-29T05:23:28;35.55;;;18.73;;
62268;SDS011;56517;51.634;5.566;2023-01-29T05:28:29;48.50;;;26.40;;
62268;SDS011;56517;51.634;5.566;2023-01-29T05:33:30;52.72;;;21.45;;
62268;SDS011;56517;51.634;5.566;2023-01-29T05:38:30;46.65;;;25.13;;
62268;SDS011;56517;51.634;5.566;2023-01-29T05:43:31;34.53;;;18.45;;
62268;SDS011;56517;51.634;5.566;2023-01-29T05:48:31;51.38;;;25.50;;
62268;SDS011;56517;51.634;5.566;2023-01-29T05:53:32;43.97;;;22.13;;
62268;SDS011;56517;51.634;5.566;2023-01-29T05:58:33;44.97;;;20.23;;
62268;SDS011;56517;51.634;5.566;2023-01-29T06:03:33;40.72;;;20.33;;
62268;SDS011;56517;51.634;5.566;2023-01-29T06:08:34;45.22;;;22.27;;
62268;SDS011;56517;51.634;5.566;2023-01-29T06:13:34;46.60;;;22.67;;
62268;SDS011;56517;51.634;5.566;2023-01-29T06:18:35;46.38;;;21.23;;
62268;SDS011;56517;51.634;5.566;2023-01-29T06:23:36;45.75;;;22.52;;
62268;SDS011;56517;51.634;5.566;2023-01-29T06:28:37;45.85;;;23.27;;
62268;SDS011;56517;51.634;5.566;2023-01-29T06:33:37;50.15;;;24.10;;
62268;SDS011;56517;51.634;5.566;2023-01-29T06:38:38;51.55;;;26.95;;
62268;SDS011;56517;51.634;5.566;2023-01-29T06:43:38;51.15;;;22.42;;
62268;SDS011;56517;51.634;5.566;2023-01-29T06:48:39;49.80;;;24.08;;
62268;SDS011;56517;51.634;5.566;2023-01-29T06:53:39;60.33;;;29.63;;
62268;SDS011;56517;51.634;5.566;2023-01-29T06:58:40;51.90;;;25.17;;
62268;SDS011;56517;51.634;5.566;2023-01-29T07:03:40;45.75;;;24.15;;
62268;SDS011;56517;51.634;5.566;2023-01-29T07:08:41;55.75;;;28.92;;
62268;SDS011;56517;51.634;5.566;2023-01-29T07:13:42;43.42;;;22.25;;
62268;SDS011;56517;51.634;5.566;2023-01-29T07:18:42;45.03;;;21.42;;
62268;SDS011;56517;51.634;5.566;2023-01-29T07:23:43;50.80;;;22.85;;
62268;SDS011;56517;51.634;5.566;2023-01-29T07:28:43;51.47;;;22.73;;
62268;SDS011;56517;51.634;5.566;2023-01-29T07:33:44;50.65;;;26.85;;
62268;SDS011;56517;51.634;5.566;2023-01-29T07:38:47;41.65;;;21.80;;
62268;SDS011;56517;51.634;5.566;2023-01-29T07:43:48;50.58;;;24.75;;
62268;SDS011;56517;51.634;5.566;2023-01-29T07:48:48;49.65;;;23.90;;
62268;SDS011;56517;51.634;5.566;2023-01-29T07:53:49;56.13;;;28.92;;
62268;SDS011;56517;51.634;5.566;2023-01-29T07:58:49;38.40;;;20.13;;
62268;SDS011;56517;51.634;5.566;2023-01-29T08:03:50;46.28;;;22.83;;
62268;SDS011;56517;51.634;5.566;2023-01-29T08:08:50;47.50;;;24.63;;
62268;SDS011;56517;51.634;5.566;2023-01-29T08:13:51;49.38;;;26.55;;
62268;SDS011;56517;51.634;5.566;2023-01-29T08:18:51;44.22;;;21.20;;
62268;SDS011;56517;51.634;5.566;2023-01-29T08:23:52;45.55;;;21.92;;
62268;SDS011;56517;51.634;5.566;2023-01-29T08:28:53;45.38;;;21.98;;
62268;SDS011;56517;51.634;5.566;2023-01-29T08:33:53;45.10;;;21.98;;
62268;SDS011;56517;51.634;5.566;2023-01-29T08:38:54;34.72;;;19.75;;
62268;SDS011;56517;51.634;5.566;2023-01-29T08:43:54;46.05;;;23.17;;
62268;SDS011;56517;51.634;5.566;2023-01-29T08:48:55;45.80;;;23.50;;
62268;SDS011;56517;51.634;5.566;2023-01-29T08:53:55;52.28;;;26.35;;
62268;SDS011;56517;51.634;5.566;2023-01-29T08:58:56;42.03;;;20.48;;
62268;SDS011;56517;51.634;5.566;2023-01-29T09:03:56;41.63;;;22.60;;
62268;SDS011;56517;51.634;5.566;2023-01-29T09:08:57;46.10;;;21.45;;
62268;SDS011;56517;51.634;5.566;2023-01-29T09:13:57;42.30;;;25.83;;
62268;SDS011;56517;51.634;5.566;2023-01-29T09:18:58;37.45;;;21.30;;
62268;SDS011;56517;51.634;5.566;2023-01-29T09:23:58;48.83;;;24.35;;
62268;SDS011;56517;51.634;5.566;2023-01-29T09:28:59;45.53;;;24.85;;
62268;SDS011;56517;51.634;5.566;2023-01-29T09:34:00;38.97;;;20.02;;
62268;SDS011;56517;51.634;5.566;2023-01-29T09:39:00;43.22;;;22.98;;
62268;SDS011;56517;51.634;5.566;2023-01-29T09:44:01;41.60;;;22.85;;
62268;SDS011;56517;51.634;5.566;2023-01-29T09:49:14;38.45;;;21.42;;
62268;SDS011;56517;51.634;5.566;2023-01-29T09:54:18;33.20;;;19.13;;
62268;SDS011;56517;51.634;5.566;2023-01-29T09:59:21;38.28;;;20.77;;
62268;SDS011;56517;51.634;5.566;2023-01-29T10:04:30;31.00;;;20.77;;
62268;SDS011;56517;51.634;5.566;2023-01-29T10:25:10;34.78;;;19.30;;
62268;SDS011;56517;51.634;5.566;2023-01-29T10:30:56;35.55;;;22.65;;
62268;SDS011;56517;51.634;5.566;2023-01-29T10:35:43;34.58;;;20.63;;
62268;SDS011;56517;51.634;5.566;2023-01-29T10:40:48;31.45;;;18.55;;
62268;SDS011;56517;51.634;5.566;2023-01-29T10:45:55;35.70;;;18.95;;
62268;SDS011;56517;51.634;5.566;2023-01-29T10:51:09;36.90;;;21.60;;
62268;SDS011;56517;51.634;5.566;2023-01-29T11:01:31;36.00;;;19.67;;
62268;SDS011;56517;51.634;5.566;2023-01-29T11:06:33;31.88;;;17.95;;
62268;SDS011;56517;51.634;5.566;2023-01-29T11:11:36;30.73;;;20.13;;
62268;SDS011;56517;51.634;5.566;2023-01-29T11:16:41;41.25;;;21.20;;
62268;SDS011;56517;51.634;5.566;2023-01-29T11:21:55;33.40;;;19.70;;
62268;SDS011;56517;51.634;5.566;2023-01-29T11:26:57;35.08;;;19.35;;
62268;SDS011;56517;51.634;5.566;2023-01-29T11:31:58;31.50;;;18.33;;
62268;SDS011;56517;51.634;5.566;2023-01-29T11:37:00;29.95;;;18.67;;
62268;SDS011;56517;51.634;5.566;2023-01-29T11:42:01;31.50;;;20.45;;
62268;SDS011;56517;51.634;5.566;2023-01-29T11:47:16;31.52;;;17.60;;
62268;SDS011;56517;51.634;5.566;2023-01-29T11:52:18;33.03;;;18.92;;
62268;SDS011;56517;51.634;5.566;2023-01-29T11:57:22;37.05;;;19.27;;
62268;SDS011;56517;51.634;5.566;2023-01-29T12:02:24;36.88;;;22.83;;
62268;SDS011;56517;51.634;5.566;2023-01-29T12:07:26;37.78;;;22.58;;
62268;SDS011;56517;51.634;5.566;2023-01-29T12:12:28;30.23;;;17.27;;
62268;SDS011;56517;51.634;5.566;2023-01-29T12:17:29;31.70;;;18.88;;
62268;SDS011;56517;51.634;5.566;2023-01-29T12:22:44;33.53;;;19.38;;
62268;SDS011;56517;51.634;5.566;2023-01-29T12:27:45;35.55;;;20.70;;
62268;SDS011;56517;51.634;5.566;2023-01-29T12:33:02;29.98;;;18.48;;
62268;SDS011;56517;51.634;5.566;2023-01-29T12:38:11;35.90;;;22.90;;
62268;SDS011;56517;51.634;5.566;2023-01-29T12:43:17;32.87;;;18.83;;
62268;SDS011;56517;51.634;5.566;2023-01-29T12:48:20;35.95;;;20.95;;
62268;SDS011;56517;51.634;5.566;2023-01-29T12:53:25;33.33;;;20.33;;
62268;SDS011;56517;51.634;5.566;2023-01-29T13:04:10;38.13;;;24.75;;
62268;SDS011;56517;51.634;5.566;2023-01-29T13:09:14;39.37;;;21.80;;
62268;SDS011;56517;51.634;5.566;2023-01-29T13:14:37;35.40;;;20.10;;
62268;SDS011;56517;51.634;5.566;2023-01-29T13:19:42;36.13;;;19.70;;
62268;SDS011;56517;51.634;5.566;2023-01-29T13:24:44;38.22;;;20.65;;
62268;SDS011;56517;51.634;5.566;2023-01-29T13:29:45;37.67;;;22.58;;
62268;SDS011;56517;51.634;5.566;2023-01-29T13:34:46;35.78;;;21.25;;
62268;SDS011;56517;51.634;5.566;2023-01-29T13:39:51;40.92;;;23.33;;
62268;SDS011;56517;51.634;5.566;2023-01-29T13:44:53;39.75;;;22.27;;
62268;SDS011;56517;51.634;5.566;2023-01-29T13:50:29;45.05;;;25.60;;
62268;SDS011;56517;51.634;5.566;2023-01-29T13:55:22;48.85;;;25.63;;
62268;SDS011;56517;51.634;5.566;2023-01-29T14:05:41;39.33;;;23.57;;
62268;SDS011;56517;51.634;5.566;2023-01-29T14:10:42;38.65;;;22.50;;
62268;SDS011;56517;51.634;5.566;2023-01-29T14:16:25;45.10;;;24.05;;
62268;SDS011;56517;51.634;5.566;2023-01-29T14:31:36;47.72;;;25.58;;
62268;SDS011;56517;51.634;5.566;2023-01-29T14:36:41;41.88;;;24.38;;
62268;SDS011;56517;51.634;5.566;2023-01-29T14:41:43;40.00;;;22.80;;
62268;SDS011;56517;51.634;5.566;2023-01-29T14:46:43;39.78;;;22.65;;
62268;SDS011;56517;51.634;5.566;2023-01-29T14:51:44;45.90;;;22.95;;
62268;SDS011;56517;51.634;5.566;2023-01-29T14:56:51;52.03;;;29.10;;
62268;SDS011;56517;51.634;5.566;2023-01-29T15:27:16;40.80;;;24.83;;
62268;SDS011;56517;51.634;5.566;2023-01-29T15:32:20;44.55;;;26.60;;
62268;SDS011;56517;51.634;5.566;2023-01-29T15:37:24;37.70;;;20.65;;
62268;SDS011;56517;51.634;5.566;2023-01-29T15:42:26;45.20;;;24.52;;
62268;SDS011;56517;51.634;5.566;2023-01-29T15:47:29;43.60;;;21.77;;
62268;SDS011;56517;51.634;5.566;2023-01-29T15:52:30;35.35;;;19.77;;
62268;SDS011;56517;51.634;5.566;2023-01-29T15:57:33;39.38;;;21.95;;
62268;SDS011;56517;51.634;5.566;2023-01-29T16:07:35;41.15;;;23.40;;
62268;SDS011;56517;51.634;5.566;2023-01-29T16:12:36;71.93;;;29.73;;
62268;SDS011;56517;51.634;5.566;2023-01-29T16:17:39;40.42;;;22.38;;
62268;SDS011;56517;51.634;5.566;2023-01-29T16:22:39;40.88;;;24.38;;
62268;SDS011;56517;51.634;5.566;2023-01-29T16:27:40;38.45;;;22.13;;
62268;SDS011;56517;51.634;5.566;2023-01-29T16:32:42;37.90;;;21.95;;
62268;SDS011;56517;51.634;5.566;2023-01-29T16:37:46;38.10;;;21.25;;
62268;SDS011;56517;51.634;5.566;2023-01-29T16:42:47;47.13;;;22.33;;
62268;SDS011;56517;51.634;5.566;2023-01-29T16:47:48;33.45;;;17.75;;
62268;SDS011;56517;51.634;5.566;2023-01-29T16:53:03;41.00;;;26.80;;
62268;SDS011;56517;51.634;5.566;2023-01-29T16:58:20;42.88;;;19.38;;
62268;SDS011;56517;51.634;5.566;2023-01-29T17:03:22;42.72;;;23.15;;
62268;SDS011;56517;51.634;5.566;2023-01-29T17:08:25;35.38;;;18.92;;
62268;SDS011;56517;51.634;5.566;2023-01-29T17:13:32;38.78;;;22.75;;
62268;SDS011;56517;51.634;5.566;2023-01-29T17:18:33;33.03;;;19.08;;
62268;SDS011;56517;51.634;5.566;2023-01-29T17:23:34;34.10;;;19.17;;
62268;SDS011;56517;51.634;5.566;2023-01-29T17:28:34;41.13;;;22.30;;
62268;SDS011;56517;51.634;5.566;2023-01-29T17:33:36;35.88;;;18.45;;
62268;SDS011;56517;51.634;5.566;2023-01-29T17:38:37;40.05;;;22.80;;
62268;SDS011;56517;51.634;5.566;2023-01-29T17:43:38;38.63;;;22.52;;
62268;SDS011;56517;51.634;5.566;2023-01-29T17:48:38;35.10;;;20.17;;
62268;SDS011;56517;51.634;5.566;2023-01-29T17:53:39;31.95;;;20.15;;
62268;SDS011;56517;51.634;5.566;2023-01-29T17:58:40;41.30;;;21.52;;
62268;SDS011;56517;51.634;5.566;2023-01-29T18:03:41;35.40;;;21.27;;
62268;SDS011;56517;51.634;5.566;2023-01-29T18:08:41;37.67;;;21.92;;
62268;SDS011;56517;51.634;5.566;2023-01-29T18:13:42;33.78;;;21.27;;
62268;SDS011;56517;51.634;5.566;2023-01-29T18:18:42;35.78;;;20.35;;
62268;SDS011;56517;51.634;5.566;2023-01-29T18:23:43;39.35;;;24.17;;
62268;SDS011;56517;51.634;5.566;2023-01-29T18:28:43;39.08;;;20.75;;
62268;SDS011;56517;51.634;5.566;2023-01-29T18:33:44;38.58;;;18.90;;
62268;SDS011;56517;51.634;5.566;2023-01-29T18:38:44;41.30;;;21.45;;
62268;SDS011;56517;51.634;5.566;2023-01-29T18:43:45;36.22;;;21.45;;
62268;SDS011;56517;51.634;5.566;2023-01-29T18:48:45;37.50;;;19.45;;
62268;SDS011;56517;51.634;5.566;2023-01-29T18:53:49;41.55;;;19.40;;
62268;SDS011;56517;51.634;5.566;2023-01-29T18:58:53;40.92;;;22.10;;
62268;SDS011;56517;51.634;5.566;2023-01-29T19:03:53;42.00;;;22.75;;
62268;SDS011;56517;51.634;5.566;2023-01-29T19:08:54;39.13;;;21.27;;
62268;SDS011;56517;51.634;5.566;2023-01-29T19:13:54;43.67;;;21.92;;
62268;SDS011;56517;51.634;5.566;2023-01-29T19:18:55;50.10;;;28.48;;
62268;SDS011;56517;51.634;5.566;2023-01-29T19:23:55;42.35;;;20.50;;
62268;SDS011;56517;51.634;5.566;2023-01-29T19:28:56;45.55;;;26.55;;
62268;SDS011;56517;51.634;5.566;2023-01-29T19:33:57;45.47;;;25.73;;
62268;SDS011;56517;51.634;5.566;2023-01-29T19:38:57;40.33;;;21.95;;
62268;SDS011;56517;51.634;5.566;2023-01-29T19:43:58;55.35;;;28.23;;
62268;SDS011;56517;51.634;5.566;2023-01-29T19:48:58;40.80;;;22.83;;
62268;SDS011;56517;51.634;5.566;2023-01-29T19:53:59;47.03;;;23.85;;
62268;SDS011;56517;51.634;5.566;2023-01-29T19:58:59;44.15;;;22.38;;
62268;SDS011;56517;51.634;5.566;2023-01-29T20:04:00;44.83;;;20.75;;
62268;SDS011;56517;51.634;5.566;2023-01-29T20:09:00;51.42;;;26.02;;
62268;SDS011;56517;51.634;5.566;2023-01-29T20:14:01;55.80;;;29.15;;
62268;SDS011;56517;51.634;5.566;2023-01-29T20:19:01;53.97;;;23.85;;
62268;SDS011;56517;51.634;5.566;2023-01-29T20:24:02;43.72;;;23.30;;
62268;SDS011;56517;51.634;5.566;2023-01-29T20:29:03;57.35;;;28.38;;
62268;SDS011;56517;51.634;5.566;2023-01-29T20:34:03;54.25;;;25.83;;
62268;SDS011;56517;51.634;5.566;2023-01-29T20:39:04;47.22;;;22.85;;
62268;SDS011;56517;51.634;5.566;2023-01-29T20:44:04;50.90;;;24.30;;
62268;SDS011;56517;51.634;5.566;2023-01-29T20:49:05;40.85;;;22.42;;
62268;SDS011;56517;51.634;5.566;2023-01-29T20:54:05;39.00;;;21.25;;
62268;SDS011;56517;51.634;5.566;2023-01-29T20:59:06;47.33;;;25.13;;
62268;SDS011;56517;51.634;5.566;2023-01-29T21:04:07;52.78;;;24.48;;
62268;SDS011;56517;51.634;5.566;2023-01-29T21:09:08;43.20;;;22.48;;
62268;SDS011;56517;51.634;5.566;2023-01-29T21:14:08;46.97;;;23.70;;
62268;SDS011;56517;51.634;5.566;2023-01-29T21:19:11;44.75;;;22.33;;
62268;SDS011;56517;51.634;5.566;2023-01-29T21:24:12;54.38;;;28.63;;
62268;SDS011;56517;51.634;5.566;2023-01-29T21:29:12;47.70;;;22.90;;
62268;SDS011;56517;51.634;5.566;2023-01-29T21:34:13;44.22;;;21.98;;
62268;SDS011;56517;51.634;5.566;2023-01-29T21:39:14;44.95;;;21.23;;
62268;SDS011;56517;51.634;5.566;2023-01-29T21:44:14;44.20;;;22.02;;
62268;SDS011;56517;51.634;5.566;2023-01-29T21:49:15;47.45;;;22.75;;
62268;SDS011;56517;51.634;5.566;2023-01-29T21:54:15;51.45;;;27.92;;
62268;SDS011;56517;51.634;5.566;2023-01-29T21:59:16;43.58;;;22.90;;
62268;SDS011;56517;51.634;5.566;2023-01-29T22:04:16;52.50;;;27.67;;
62268;SDS011;56517;51.634;5.566;2023-01-29T22:09:17;43.95;;;23.25;;
62268;SDS011;56517;51.634;5.566;2023-01-29T22:14:17;56.55;;;34.17;;
62268;SDS011;56517;51.634;5.566;2023-01-29T22:19:18;47.35;;;25.10;;
62268;SDS011;56517;51.634;5.566;2023-01-29T22:24:19;59.90;;;34.13;;
62268;SDS011;56517;51.634;5.566;2023-01-29T22:29:20;57.85;;;32.30;;
62268;SDS011;56517;51.634;5.566;2023-01-29T22:34:20;47.53;;;24.48;;
62268;SDS011;56517;51.634;5.566;2023-01-29T22:39:21;62.03;;;36.08;;
62268;SDS011;56517;51.634;5.566;2023-01-29T22:44:21;45.45;;;23.88;;
62268;SDS011;56517;51.634;5.566;2023-01-29T22:49:22;56.83;;;29.48;;
62268;SDS011;56517;51.634;5.566;2023-01-29T22:54:23;60.40;;;32.72;;
62268;SDS011;56517;51.634;5.566;2023-01-29T22:59:23;55.65;;;26.88;;
62268;SDS011;56517;51.634;5.566;2023-01-29T23:04:24;60.75;;;27.70;;
62268;SDS011;56517;51.634;5.566;2023-01-29T23:09:24;49.28;;;25.85;;
62268;SDS011;56517;51.634;5.566;2023-01-29T23:14:25;55.45;;;26.02;;
62268;SDS011;56517;51.634;5.566;2023-01-29T23:19:25;51.45;;;25.55;;
62268;SDS011;56517;51.634;5.566;2023-01-29T23:24:27;52.58;;;27.98;;
62268;SDS011;56517;51.634;5.566;2023-01-29T23:29:28;65.55;;;33.25;;
62268;SDS011;56517;51.634;5.566;2023-01-29T23:34:28;64.95;;;29.17;;
62268;SDS011;56517;51.634;5.566;2023-01-29T23:39:29;63.13;;;34.58;;
62268;SDS011;56517;51.634;5.566;2023-01-29T23:44:30;50.75;;;27.15;;
62268;SDS011;56517;51.634;5.566;2023-01-29T23:49:30;52.22;;;28.90;;
62268;SDS011;56517;51.634;5.566;2023-01-29T23:54:31;54.42;;;28.52;;
62268;SDS011;56517;51.634;5.566;2023-01-29T23:59:31;53.83;;;26.50;;
